createdAt,value
2018-03-18T00:01:39.804Z,63.70
2018-03-18T00:04:44.969Z,63.00
2018-03-18T00:07:52.512Z,64.30
2018-03-18T00:10:58.410Z,64.30
2018-03-18T00:14:05.626Z,64.60
2018-03-18T00:17:13.283Z,63.80
2018-03-18T00:20:20.148Z,62.50
2018-03-18T00:23:28.843Z,61.50
2018-03-18T00:26:36.613Z,62.50
2018-03-18T00:29:44.117Z,62.90
2018-03-18T00:32:51.910Z,62.40
2018-03-18T00:35:59.262Z,62.40
2018-03-18T00:39:05.811Z,62.70
2018-03-18T00:42:11.860Z,62.70
2018-03-18T00:45:17.353Z,62.30
2018-03-18T00:48:22.861Z,62.50
2018-03-18T00:51:49.286Z,63.20
2018-03-18T00:54:55.408Z,63.70
2018-03-18T00:58:04.617Z,64.80
2018-03-18T01:01:13.878Z,64.80
2018-03-18T01:04:23.139Z,63.70
2018-03-18T01:07:29.829Z,63.60
2018-03-18T01:10:35.172Z,63.60
2018-03-18T01:13:40.569Z,63.60
2018-03-18T01:16:46.580Z,62.20
2018-03-18T01:19:55.725Z,60.00
2018-03-18T01:23:00.779Z,57.80
2018-03-18T01:26:05.645Z,57.70
2018-03-18T01:29:09.140Z,58.50
2018-03-18T01:32:14.624Z,57.30
2018-03-18T01:35:21.213Z,56.50
2018-03-18T01:38:32.141Z,56.70
2018-03-18T01:41:38.957Z,56.60
2018-03-18T01:44:44.893Z,56.60
2018-03-18T01:47:50.072Z,56.10
2018-03-18T01:50:56.537Z,53.40
2018-03-18T01:54:04.834Z,53.30
2018-03-18T01:57:08.931Z,53.50
2018-03-18T02:00:13.320Z,53.20
2018-03-18T02:03:18.967Z,54.80
2018-03-18T02:06:24.865Z,56.00
2018-03-18T02:09:29.015Z,55.10
2018-03-18T02:12:33.407Z,55.10
2018-03-18T02:15:37.520Z,55.30
2018-03-18T02:18:41.981Z,55.20
2018-03-18T02:21:48.116Z,53.90
2018-03-18T02:24:53.304Z,54.10
2018-03-18T02:27:57.740Z,53.30
2018-03-18T02:31:01.468Z,53.80
2018-03-18T02:34:06.864Z,56.60
2018-03-18T02:37:12.702Z,56.60
2018-03-18T02:40:21.073Z,56.90
2018-03-18T02:43:29.051Z,56.10
2018-03-18T02:46:34.371Z,56.10
2018-03-18T02:49:37.854Z,56.10
2018-03-18T02:52:42.494Z,53.00
2018-03-18T02:55:49.198Z,52.60
2018-03-18T02:58:54.006Z,52.20
2018-03-18T03:02:00.617Z,51.90
2018-03-18T03:05:06.494Z,51.70
2018-03-18T03:08:10.810Z,52.10
2018-03-18T03:11:17.540Z,51.70
2018-03-18T03:14:23.549Z,51.70
2018-03-18T03:17:31.484Z,51.30
2018-03-18T03:20:37.519Z,51.60
2018-03-18T03:23:43.807Z,51.20
2018-03-18T03:26:48.419Z,50.20
2018-03-18T03:29:54.894Z,50.20
2018-03-18T03:33:02.658Z,50.10
2018-03-18T03:36:06.615Z,50.40
2018-03-18T03:39:11.852Z,50.80
2018-03-18T03:42:17.081Z,51.00
2018-03-18T03:45:22.604Z,51.50
2018-03-18T03:48:28.270Z,52.50
2018-03-18T03:51:34.077Z,52.70
2018-03-18T03:54:40.441Z,52.70
2018-03-18T03:57:46.576Z,52.20
2018-03-18T04:00:54.624Z,50.90
2018-03-18T04:04:03.578Z,51.10
2018-03-18T04:07:10.514Z,51.10
2018-03-18T04:10:15.900Z,52.30
2018-03-18T04:13:25.117Z,52.80
2018-03-18T04:16:32.360Z,51.20
2018-03-18T04:19:37.026Z,51.20
2018-03-18T04:22:41.937Z,51.20
2018-03-18T04:25:45.566Z,51.50
2018-03-18T04:28:50.959Z,50.50
2018-03-18T04:31:56.586Z,50.50
2018-03-18T04:35:01.736Z,50.90
2018-03-18T04:38:06.796Z,50.90
2018-03-18T04:44:25.520Z,51.70
2018-03-18T04:47:31.674Z,51.70
2018-03-18T04:50:37.150Z,51.70
2018-03-18T04:53:42.244Z,53.20
2018-03-18T04:56:48.311Z,54.70
2018-03-18T05:03:04.033Z,55.80
2018-03-18T05:06:11.516Z,56.40
2018-03-18T05:09:17.657Z,55.60
2018-03-18T05:12:22.092Z,55.80
2018-03-18T05:15:30.645Z,56.20
2018-03-18T05:18:34.318Z,56.10
2018-03-18T05:21:42.552Z,56.40
2018-03-18T05:29:32.214Z,56.70
2018-03-18T05:32:36.493Z,56.70
2018-03-18T05:35:41.449Z,56.30
2018-03-18T05:38:55.920Z,55.80
2018-03-18T05:42:11.035Z,55.90
2018-03-18T05:45:15.155Z,55.60
2018-03-18T05:48:21.283Z,55.40
2018-03-18T05:51:29.510Z,55.50
2018-03-18T05:54:36.050Z,56.10
2018-03-18T05:57:39.750Z,55.80
2018-03-18T06:00:51.254Z,55.60
2018-03-18T06:04:01.812Z,55.60
2018-03-18T06:07:14.736Z,55.00
2018-03-18T06:10:20.807Z,54.80
2018-03-18T06:13:29.344Z,54.80
2018-03-18T06:16:33.415Z,54.80
2018-03-18T06:19:40.540Z,55.20
2018-03-18T06:22:47.383Z,55.30
2018-03-18T06:25:54.153Z,55.00
2018-03-18T06:28:59.365Z,55.00
2018-03-18T06:32:04.003Z,55.00
2018-03-18T06:35:14.120Z,55.00
2018-03-18T06:38:21.691Z,54.90
2018-03-18T06:41:30.222Z,54.70
2018-03-18T06:44:36.952Z,54.70
2018-03-18T06:47:41.214Z,54.20
2018-03-18T06:50:46.736Z,53.60
2018-03-18T06:53:50.762Z,53.60
2018-03-18T06:56:58.043Z,53.50
2018-03-18T07:00:02.197Z,53.90
2018-03-18T07:03:07.397Z,54.60
2018-03-18T07:06:15.230Z,54.30
2018-03-18T07:09:26.735Z,53.10
2018-03-18T07:49:53.492Z,51.30
2018-03-18T08:00:20.371Z,50.40
2018-03-18T08:03:25.428Z,50.40
2018-03-18T08:24:39.511Z,48.70
2018-03-18T08:31:39.776Z,49.10
2018-03-18T08:35:07.412Z,50.10
2018-03-18T08:38:15.647Z,48.90
2018-03-18T08:41:19.911Z,48.40
2018-03-18T08:44:42.644Z,47.70
2018-03-18T08:51:31.592Z,48.70
2018-03-18T08:58:48.022Z,48.30
2018-03-18T09:09:23.758Z,49.00
2018-03-18T09:12:27.055Z,49.00
2018-03-18T09:15:30.371Z,49.00
2018-03-18T09:18:33.693Z,49.10
2018-03-18T09:21:37.015Z,48.20
2018-03-18T09:24:40.338Z,49.40
2018-03-18T09:27:43.642Z,50.40
2018-03-18T09:30:46.980Z,51.10
2018-03-18T09:33:50.275Z,50.40
2018-03-18T09:36:53.586Z,50.30
2018-03-18T09:39:56.882Z,50.50
2018-03-18T09:43:00.205Z,50.40
2018-03-18T09:46:03.503Z,49.50
2018-03-18T09:49:06.835Z,48.70
2018-03-18T09:52:10.901Z,49.40
2018-03-18T09:55:14.238Z,49.40
2018-03-18T09:58:17.530Z,49.50
2018-03-18T10:01:20.858Z,49.70
2018-03-18T10:04:24.162Z,50.50
2018-03-18T10:07:27.467Z,50.30
2018-03-18T10:10:30.787Z,49.90
2018-03-18T10:13:34.078Z,49.30
2018-03-18T10:16:37.391Z,49.80
2018-03-18T10:19:40.714Z,49.10
2018-03-18T10:22:44.780Z,49.50
2018-03-18T10:25:48.115Z,49.40
2018-03-18T10:28:51.416Z,50.20
2018-03-18T10:31:54.735Z,51.00
2018-03-18T10:34:58.806Z,50.30
2018-03-18T10:38:02.131Z,50.30
2018-03-18T10:41:06.207Z,51.40
2018-03-18T10:44:09.515Z,51.30
2018-03-18T10:47:12.854Z,50.00
2018-03-18T10:50:16.900Z,48.20
2018-03-18T10:53:20.222Z,48.10
2018-03-18T10:56:23.523Z,49.10
2018-03-18T10:59:26.836Z,48.40
2018-03-18T11:02:30.155Z,50.00
2018-03-18T11:05:33.486Z,50.80
2018-03-18T11:08:37.291Z,50.70
2018-03-18T11:11:40.602Z,51.30
2018-03-18T12:16:08.213Z,52.00
2018-03-18T12:22:47.384Z,50.80
2018-03-18T12:26:13.073Z,48.90
2018-03-18T12:29:38.228Z,50.10
2018-03-18T12:33:10.005Z,50.10
2018-03-18T12:36:23.972Z,50.60
2018-03-18T12:39:45.420Z,49.90
2018-03-18T12:43:06.406Z,49.80
2018-03-18T12:46:09.699Z,50.00
2018-03-18T12:49:13.001Z,48.60
2018-03-18T12:52:16.290Z,49.30
2018-03-18T12:55:19.620Z,49.70
2018-03-18T12:58:22.914Z,48.80
2018-03-18T13:01:45.411Z,49.40
2018-03-18T13:04:48.866Z,49.00
2018-03-18T13:25:41.715Z,50.60
2018-03-18T13:28:45.775Z,51.10
2018-03-18T13:31:49.086Z,51.00
2018-03-18T13:34:53.146Z,51.60
2018-03-18T13:37:56.458Z,51.60
2018-03-18T13:40:59.746Z,52.00
2018-03-18T13:44:03.055Z,51.60
2018-03-18T13:47:06.372Z,51.90
2018-03-18T13:50:09.662Z,52.20
2018-03-18T13:53:12.969Z,50.50
2018-03-18T13:56:16.259Z,51.60
2018-03-18T13:59:19.566Z,51.30
2018-03-18T14:02:22.898Z,51.50
2018-03-18T14:05:26.958Z,50.80
2018-03-18T14:08:30.270Z,50.70
2018-03-18T14:11:33.559Z,51.40
2018-03-18T14:14:36.872Z,52.40
2018-03-18T14:17:40.174Z,53.60
2018-03-18T14:20:43.495Z,52.70
2018-03-18T14:23:47.558Z,51.40
2018-03-18T14:26:50.871Z,51.30
2018-03-18T14:29:54.163Z,51.30
2018-03-18T14:32:57.475Z,51.90
2018-03-18T14:36:00.810Z,52.20
2018-03-18T14:39:04.168Z,54.10
2018-03-18T14:42:07.539Z,54.10
2018-03-18T14:45:11.703Z,54.80
2018-03-18T14:48:16.756Z,54.50
2018-03-18T14:51:20.096Z,54.40
2018-03-18T14:54:24.623Z,54.40
2018-03-18T14:57:28.816Z,54.90
2018-03-18T15:00:32.199Z,54.30
2018-03-18T15:07:20.287Z,54.40
2018-03-18T15:10:23.612Z,53.40
2018-03-18T15:13:26.930Z,54.40
2018-03-18T15:16:31.013Z,55.20
2018-03-18T15:19:34.326Z,55.10
2018-03-18T15:22:38.360Z,55.40
2018-03-18T15:25:42.448Z,55.30
2018-03-18T15:28:45.839Z,55.30
2018-03-18T15:31:49.161Z,55.20
2018-03-18T15:34:53.226Z,56.20
2018-03-18T15:37:56.532Z,56.10
2018-03-18T15:41:00.641Z,55.90
2018-03-18T15:44:04.679Z,53.70
2018-03-18T15:47:09.023Z,53.60
2018-03-18T15:50:13.103Z,55.50
2018-03-18T15:53:16.427Z,55.40
2018-03-18T15:56:19.727Z,54.20
2018-03-18T15:59:23.810Z,54.80
2018-03-18T16:02:27.102Z,54.80
2018-03-18T16:05:30.410Z,55.00
2018-03-18T16:08:33.714Z,55.90
2018-03-18T16:11:37.022Z,56.40
2018-03-18T16:14:44.386Z,56.50
2018-03-18T16:17:48.876Z,57.50
2018-03-18T16:20:52.896Z,56.60
2018-03-18T16:23:57.318Z,56.00
2018-03-18T16:27:00.705Z,56.40
2018-03-18T16:30:21.775Z,56.90
2018-03-18T16:33:26.482Z,56.10
2018-03-18T16:36:29.980Z,56.00
2018-03-18T16:39:33.363Z,56.60
2018-03-18T16:42:36.664Z,56.70
2018-03-18T16:45:39.971Z,55.90
2018-03-18T16:48:43.283Z,55.30
2018-03-18T16:51:46.602Z,55.20
2018-03-18T16:54:50.661Z,55.90
2018-03-18T16:57:53.974Z,55.90
2018-03-18T17:00:57.266Z,56.80
2018-03-18T17:04:00.574Z,58.30
2018-03-18T17:07:03.867Z,59.00
2018-03-18T17:10:07.178Z,60.10
2018-03-18T17:13:10.471Z,60.00
2018-03-18T17:16:13.778Z,59.10
2018-03-18T17:19:17.072Z,59.80
2018-03-18T17:22:20.404Z,61.00
2018-03-18T17:25:23.703Z,62.10
2018-03-18T17:28:27.027Z,62.60
2018-03-18T17:31:30.335Z,62.80
2018-03-18T17:34:33.628Z,62.80
2018-03-18T17:37:36.943Z,63.20
2018-03-18T17:40:40.240Z,63.40
2018-03-18T17:43:43.557Z,64.20
2018-03-18T17:47:05.323Z,65.70
2018-03-18T17:54:06.840Z,67.40
2018-03-18T17:57:11.365Z,68.80
2018-03-18T18:00:14.705Z,69.80
2018-03-18T18:03:18.000Z,70.40
2018-03-18T18:06:21.319Z,70.70
2018-03-18T18:09:24.615Z,71.30
2018-03-18T18:12:27.935Z,71.00
2018-03-18T18:15:31.234Z,70.80
2018-03-18T18:18:34.547Z,70.70
2018-03-18T18:21:37.868Z,71.10
2018-03-18T18:24:41.942Z,71.20
2018-03-18T18:27:45.258Z,71.20
2018-03-18T18:30:48.555Z,71.10
2018-03-18T18:33:51.956Z,71.20
2018-03-18T18:36:55.279Z,71.30
2018-03-18T18:39:58.578Z,72.10
2018-03-18T18:43:01.890Z,71.10
2018-03-18T18:46:05.195Z,70.90
2018-03-18T18:49:08.523Z,71.00
2018-03-18T18:52:11.822Z,72.10
2018-03-18T18:55:15.146Z,72.30
2018-03-18T18:58:19.216Z,73.00
2018-03-18T19:01:22.534Z,72.80
2018-03-18T19:04:25.848Z,73.40
2018-03-18T19:07:29.939Z,73.20
2018-03-18T19:10:33.240Z,73.10
2018-03-18T19:13:36.569Z,72.80
2018-03-18T19:16:39.879Z,72.60
2018-03-18T19:19:43.205Z,73.20
2018-03-18T19:22:46.523Z,71.80
2018-03-18T19:25:49.822Z,71.10
2018-03-18T19:28:53.131Z,72.10
2018-03-18T19:31:56.447Z,71.50
2018-03-18T19:34:59.766Z,70.40
2018-03-18T19:38:03.063Z,69.90
2018-03-18T19:41:06.379Z,68.40
2018-03-18T19:44:09.700Z,67.50
2018-03-18T19:47:13.011Z,68.70
2018-03-18T19:50:16.331Z,69.40
2018-03-18T19:53:19.635Z,70.20
2018-03-18T19:56:22.962Z,70.00
2018-03-18T19:59:26.275Z,70.00
2018-03-18T20:02:29.593Z,70.20
2018-03-18T20:05:32.895Z,71.00
2018-03-18T20:08:36.992Z,71.30
2018-03-18T20:11:40.316Z,71.20
2018-03-18T20:14:44.387Z,70.60
2018-03-18T20:17:47.706Z,70.70
2018-03-18T20:20:51.007Z,71.10
2018-03-18T20:23:54.350Z,71.50
2018-03-18T20:26:57.671Z,71.70
2018-03-18T20:30:00.995Z,71.60
2018-03-18T20:33:04.311Z,71.90
2018-03-18T20:36:08.414Z,73.30
2018-03-18T20:39:12.495Z,73.50
2018-03-18T20:42:15.818Z,73.50
2018-03-18T20:45:19.147Z,73.80
2018-03-18T20:48:22.479Z,74.30
2018-03-18T20:51:26.554Z,74.90
2018-03-18T20:54:29.874Z,74.90
2018-03-18T20:57:33.198Z,75.10
2018-03-18T21:00:36.616Z,75.20
2018-03-18T21:03:39.935Z,74.90
2018-03-18T21:06:43.272Z,75.80
2018-03-18T21:09:46.571Z,75.30
2018-03-18T21:12:49.895Z,75.30
2018-03-18T21:15:53.228Z,75.40
2018-03-18T21:18:56.534Z,75.60
2018-03-18T21:21:59.868Z,75.80
2018-03-18T21:25:03.183Z,76.40
2018-03-18T21:28:06.507Z,76.40
2018-03-18T21:31:09.812Z,76.60
2018-03-18T21:34:13.131Z,77.30
2018-03-18T21:37:16.434Z,77.60
2018-03-18T21:40:20.526Z,77.80
2018-03-18T21:43:23.830Z,77.80
2018-03-18T21:46:27.148Z,78.20
2018-03-18T21:49:30.479Z,78.30
2018-03-18T21:52:34.570Z,79.50
2018-03-18T21:55:38.658Z,79.30
2018-03-18T21:58:41.963Z,79.30
2018-03-18T22:01:46.054Z,80.80
2018-03-18T22:04:49.364Z,80.10
2018-03-18T22:07:52.688Z,80.60
2018-03-18T22:10:56.003Z,80.60
2018-03-18T22:13:59.331Z,80.90
2018-03-18T22:17:02.633Z,81.10
2018-03-18T22:20:05.955Z,81.40
2018-03-18T22:23:09.279Z,81.60
2018-03-18T22:26:12.588Z,81.70
2018-03-18T22:29:15.911Z,82.00
2018-03-18T22:32:19.211Z,82.20
2018-03-18T22:35:22.539Z,82.20
2018-03-18T22:38:25.835Z,82.40
2018-03-18T22:41:29.147Z,82.40
2018-03-18T22:44:32.462Z,82.60
2018-03-18T22:47:35.822Z,82.70
2018-03-18T22:50:39.155Z,82.60
2018-03-18T22:53:42.454Z,82.80
2018-03-18T22:56:45.780Z,82.70
2018-03-18T22:59:49.080Z,82.90
2018-03-18T23:02:52.402Z,83.20
2018-03-18T23:05:55.715Z,83.40
2018-03-18T23:08:59.024Z,83.60
2018-03-18T23:12:02.352Z,83.50
2018-03-18T23:15:06.434Z,84.00
2018-03-18T23:18:09.758Z,83.90
2018-03-18T23:21:13.843Z,84.40
2018-03-18T23:24:17.158Z,84.30
2018-03-18T23:27:20.476Z,84.90
2018-03-18T23:30:23.782Z,85.00
2018-03-18T23:33:27.106Z,85.20
2018-03-18T23:36:30.411Z,85.30
2018-03-18T23:39:33.730Z,85.30
2018-03-18T23:42:37.069Z,85.00
2018-03-18T23:45:41.138Z,84.60
2018-03-18T23:48:44.464Z,84.50
2018-03-18T23:51:48.555Z,84.00
2018-03-18T23:54:51.859Z,84.00
2018-03-18T23:57:55.182Z,84.10
